sensor_id;sensor_type;location;lat;lon;timestamp;P1;durP1;ratioP1;P2;durP2;ratioP2
44438;SDS011;30145;48.874;10.186;2022-11-13T00:00:05;6.50;;;4.97;;
44438;SDS011;30145;48.874;10.186;2022-11-13T00:02:32;6.47;;;5.77;;
44438;SDS011;30145;48.874;10.186;2022-11-13T00:05:00;6.90;;;5.17;;
44438;SDS011;30145;48.874;10.186;2022-11-13T00:07:27;10.57;;;5.43;;
44438;SDS011;30145;48.874;10.186;2022-11-13T00:09:54;6.30;;;5.00;;
44438;SDS011;30145;48.874;10.186;2022-11-13T00:12:21;8.23;;;5.80;;
44438;SDS011;30145;48.874;10.186;2022-11-13T00:14:48;7.60;;;5.70;;
44438;SDS011;30145;48.874;10.186;2022-11-13T00:17:15;6.07;;;4.93;;
44438;SDS011;30145;48.874;10.186;2022-11-13T00:19:42;7.50;;;5.70;;
44438;SDS011;30145;48.874;10.186;2022-11-13T00:22:08;6.57;;;5.27;;
44438;SDS011;30145;48.874;10.186;2022-11-13T00:24:36;6.07;;;5.47;;
44438;SDS011;30145;48.874;10.186;2022-11-13T00:27:03;6.50;;;5.07;;
44438;SDS011;30145;48.874;10.186;2022-11-13T00:29:30;6.20;;;5.33;;
44438;SDS011;30145;48.874;10.186;2022-11-13T00:31:56;7.27;;;5.63;;
44438;SDS011;30145;48.874;10.186;2022-11-13T00:34:23;6.40;;;5.57;;
44438;SDS011;30145;48.874;10.186;2022-11-13T00:37:06;6.43;;;5.63;;
44438;SDS011;30145;48.874;10.186;2022-11-13T00:39:33;6.67;;;5.30;;
44438;SDS011;30145;48.874;10.186;2022-11-13T00:42:00;10.50;;;9.40;;
44438;SDS011;30145;48.874;10.186;2022-11-13T00:44:27;12.20;;;9.30;;
44438;SDS011;30145;48.874;10.186;2022-11-13T00:46:54;9.97;;;8.13;;
44438;SDS011;30145;48.874;10.186;2022-11-13T00:49:21;7.10;;;5.10;;
44438;SDS011;30145;48.874;10.186;2022-11-13T00:51:48;8.57;;;5.47;;
44438;SDS011;30145;48.874;10.186;2022-11-13T00:54:15;9.83;;;6.40;;
44438;SDS011;30145;48.874;10.186;2022-11-13T00:56:42;9.97;;;6.17;;
44438;SDS011;30145;48.874;10.186;2022-11-13T00:59:09;7.23;;;5.40;;
44438;SDS011;30145;48.874;10.186;2022-11-13T01:01:36;10.23;;;6.03;;
44438;SDS011;30145;48.874;10.186;2022-11-13T01:04:03;5.47;;;4.33;;
44438;SDS011;30145;48.874;10.186;2022-11-13T01:06:30;10.77;;;6.17;;
44438;SDS011;30145;48.874;10.186;2022-11-13T01:08:58;7.40;;;5.27;;
44438;SDS011;30145;48.874;10.186;2022-11-13T01:11:27;6.70;;;4.77;;
44438;SDS011;30145;48.874;10.186;2022-11-13T01:13:55;9.80;;;6.03;;
44438;SDS011;30145;48.874;10.186;2022-11-13T01:16:23;7.43;;;5.33;;
44438;SDS011;30145;48.874;10.186;2022-11-13T01:18:52;9.50;;;6.10;;
44438;SDS011;30145;48.874;10.186;2022-11-13T01:21:22;9.87;;;6.07;;
44438;SDS011;30145;48.874;10.186;2022-11-13T01:23:51;6.80;;;4.87;;
44438;SDS011;30145;48.874;10.186;2022-11-13T01:26:21;16.20;;;7.57;;
44438;SDS011;30145;48.874;10.186;2022-11-13T01:28:49;7.67;;;5.63;;
44438;SDS011;30145;48.874;10.186;2022-11-13T01:31:17;8.93;;;5.67;;
44438;SDS011;30145;48.874;10.186;2022-11-13T01:33:46;10.07;;;5.90;;
44438;SDS011;30145;48.874;10.186;2022-11-13T01:36:16;12.53;;;6.50;;
44438;SDS011;30145;48.874;10.186;2022-11-13T01:38:44;9.90;;;6.27;;
44438;SDS011;30145;48.874;10.186;2022-11-13T01:41:16;8.30;;;6.40;;
44438;SDS011;30145;48.874;10.186;2022-11-13T01:43:48;7.23;;;5.70;;
44438;SDS011;30145;48.874;10.186;2022-11-13T01:46:26;10.37;;;6.33;;
44438;SDS011;30145;48.874;10.186;2022-11-13T01:54:32;7.23;;;5.63;;
44438;SDS011;30145;48.874;10.186;2022-11-13T01:57:00;7.23;;;5.67;;
44438;SDS011;30145;48.874;10.186;2022-11-13T01:59:33;8.37;;;6.00;;
44438;SDS011;30145;48.874;10.186;2022-11-13T02:02:03;8.67;;;5.90;;
44438;SDS011;30145;48.874;10.186;2022-11-13T02:04:30;7.97;;;5.97;;
44438;SDS011;30145;48.874;10.186;2022-11-13T02:07:08;6.20;;;5.00;;
44438;SDS011;30145;48.874;10.186;2022-11-13T02:09:43;8.93;;;6.67;;
44438;SDS011;30145;48.874;10.186;2022-11-13T02:12:14;7.93;;;6.40;;
44438;SDS011;30145;48.874;10.186;2022-11-13T02:14:46;7.70;;;6.23;;
44438;SDS011;30145;48.874;10.186;2022-11-13T02:17:31;6.17;;;5.50;;
44438;SDS011;30145;48.874;10.186;2022-11-13T02:20:10;8.63;;;7.00;;
44438;SDS011;30145;48.874;10.186;2022-11-13T02:25:05;11.20;;;7.63;;
44438;SDS011;30145;48.874;10.186;2022-11-13T02:27:34;11.27;;;7.90;;
44438;SDS011;30145;48.874;10.186;2022-11-13T02:30:23;9.43;;;7.23;;
44438;SDS011;30145;48.874;10.186;2022-11-13T02:32:55;9.03;;;7.07;;
44438;SDS011;30145;48.874;10.186;2022-11-13T02:35:24;10.17;;;7.20;;
44438;SDS011;30145;48.874;10.186;2022-11-13T02:37:54;10.83;;;7.80;;
44438;SDS011;30145;48.874;10.186;2022-11-13T02:40:22;8.00;;;6.60;;
44438;SDS011;30145;48.874;10.186;2022-11-13T02:42:50;10.93;;;6.67;;
44438;SDS011;30145;48.874;10.186;2022-11-13T02:45:17;9.47;;;7.20;;
44438;SDS011;30145;48.874;10.186;2022-11-13T02:47:44;9.77;;;7.47;;
44438;SDS011;30145;48.874;10.186;2022-11-13T02:50:12;9.43;;;6.77;;
44438;SDS011;30145;48.874;10.186;2022-11-13T02:52:39;11.57;;;7.77;;
44438;SDS011;30145;48.874;10.186;2022-11-13T02:55:06;10.63;;;7.03;;
44438;SDS011;30145;48.874;10.186;2022-11-13T02:57:33;10.10;;;7.50;;
44438;SDS011;30145;48.874;10.186;2022-11-13T03:00:00;12.63;;;8.37;;
44438;SDS011;30145;48.874;10.186;2022-11-13T03:02:27;11.70;;;8.43;;
44438;SDS011;30145;48.874;10.186;2022-11-13T03:04:56;12.57;;;8.70;;
44438;SDS011;30145;48.874;10.186;2022-11-13T03:07:39;10.67;;;7.70;;
44438;SDS011;30145;48.874;10.186;2022-11-13T03:10:07;11.93;;;8.47;;
44438;SDS011;30145;48.874;10.186;2022-11-13T03:12:35;14.93;;;8.83;;
44438;SDS011;30145;48.874;10.186;2022-11-13T03:15:02;11.13;;;8.27;;
44438;SDS011;30145;48.874;10.186;2022-11-13T03:17:31;11.77;;;8.40;;
44438;SDS011;30145;48.874;10.186;2022-11-13T03:19:58;10.50;;;7.80;;
44438;SDS011;30145;48.874;10.186;2022-11-13T03:22:26;11.63;;;8.17;;
44438;SDS011;30145;48.874;10.186;2022-11-13T03:24:53;11.57;;;7.90;;
44438;SDS011;30145;48.874;10.186;2022-11-13T03:27:20;12.03;;;8.30;;
44438;SDS011;30145;48.874;10.186;2022-11-13T03:29:47;12.60;;;8.00;;
44438;SDS011;30145;48.874;10.186;2022-11-13T03:32:14;10.17;;;7.77;;
44438;SDS011;30145;48.874;10.186;2022-11-13T03:34:41;11.43;;;7.60;;
44438;SDS011;30145;48.874;10.186;2022-11-13T03:37:08;7.77;;;6.57;;
44438;SDS011;30145;48.874;10.186;2022-11-13T03:39:35;10.20;;;7.40;;
44438;SDS011;30145;48.874;10.186;2022-11-13T03:42:02;11.63;;;7.50;;
44438;SDS011;30145;48.874;10.186;2022-11-13T03:44:29;8.17;;;5.97;;
44438;SDS011;30145;48.874;10.186;2022-11-13T03:46:56;9.40;;;6.63;;
44438;SDS011;30145;48.874;10.186;2022-11-13T03:49:23;8.20;;;6.27;;
44438;SDS011;30145;48.874;10.186;2022-11-13T03:51:50;8.53;;;5.40;;
44438;SDS011;30145;48.874;10.186;2022-11-13T03:54:17;9.77;;;6.23;;
44438;SDS011;30145;48.874;10.186;2022-11-13T03:56:44;6.93;;;5.03;;
44438;SDS011;30145;48.874;10.186;2022-11-13T03:59:11;7.83;;;5.33;;
44438;SDS011;30145;48.874;10.186;2022-11-13T04:01:38;11.03;;;5.40;;
44438;SDS011;30145;48.874;10.186;2022-11-13T04:04:05;6.83;;;5.33;;
44438;SDS011;30145;48.874;10.186;2022-11-13T04:06:32;5.47;;;4.10;;
44438;SDS011;30145;48.874;10.186;2022-11-13T04:08:59;6.80;;;4.30;;
44438;SDS011;30145;48.874;10.186;2022-11-13T04:11:26;5.67;;;3.33;;
44438;SDS011;30145;48.874;10.186;2022-11-13T04:13:53;7.97;;;3.40;;
44438;SDS011;30145;48.874;10.186;2022-11-13T04:16:20;4.30;;;3.50;;
44438;SDS011;30145;48.874;10.186;2022-11-13T04:18:47;3.13;;;2.73;;
44438;SDS011;30145;48.874;10.186;2022-11-13T04:21:14;5.03;;;3.30;;
44438;SDS011;30145;48.874;10.186;2022-11-13T04:23:41;4.43;;;3.20;;
44438;SDS011;30145;48.874;10.186;2022-11-13T04:26:08;3.17;;;2.87;;
44438;SDS011;30145;48.874;10.186;2022-11-13T04:28:35;3.87;;;2.77;;
44438;SDS011;30145;48.874;10.186;2022-11-13T04:31:02;2.90;;;2.57;;
44438;SDS011;30145;48.874;10.186;2022-11-13T04:33:29;4.80;;;3.13;;
44438;SDS011;30145;48.874;10.186;2022-11-13T04:35:56;3.20;;;2.90;;
44438;SDS011;30145;48.874;10.186;2022-11-13T04:38:23;4.13;;;2.87;;
44438;SDS011;30145;48.874;10.186;2022-11-13T04:40:50;3.37;;;2.60;;
44438;SDS011;30145;48.874;10.186;2022-11-13T04:43:37;5.03;;;3.07;;
44438;SDS011;30145;48.874;10.186;2022-11-13T04:46:04;3.97;;;2.70;;
44438;SDS011;30145;48.874;10.186;2022-11-13T04:48:31;3.53;;;2.80;;
44438;SDS011;30145;48.874;10.186;2022-11-13T04:50:58;3.53;;;2.60;;
44438;SDS011;30145;48.874;10.186;2022-11-13T04:53:25;2.87;;;2.50;;
44438;SDS011;30145;48.874;10.186;2022-11-13T04:55:52;2.60;;;2.03;;
44438;SDS011;30145;48.874;10.186;2022-11-13T04:58:19;2.50;;;2.30;;
44438;SDS011;30145;48.874;10.186;2022-11-13T05:00:46;5.73;;;2.90;;
44438;SDS011;30145;48.874;10.186;2022-11-13T05:03:13;2.80;;;2.20;;
44438;SDS011;30145;48.874;10.186;2022-11-13T05:05:40;3.63;;;2.67;;
44438;SDS011;30145;48.874;10.186;2022-11-13T05:08:07;3.27;;;2.30;;
44438;SDS011;30145;48.874;10.186;2022-11-13T05:10:34;5.40;;;2.97;;
44438;SDS011;30145;48.874;10.186;2022-11-13T05:13:01;3.03;;;2.30;;
44438;SDS011;30145;48.874;10.186;2022-11-13T05:15:28;2.93;;;2.47;;
44438;SDS011;30145;48.874;10.186;2022-11-13T05:17:55;3.40;;;2.63;;
44438;SDS011;30145;48.874;10.186;2022-11-13T05:20:22;3.80;;;2.87;;
44438;SDS011;30145;48.874;10.186;2022-11-13T05:22:49;3.97;;;3.13;;
44438;SDS011;30145;48.874;10.186;2022-11-13T05:25:16;3.40;;;2.47;;
44438;SDS011;30145;48.874;10.186;2022-11-13T05:27:43;3.17;;;2.50;;
44438;SDS011;30145;48.874;10.186;2022-11-13T05:30:10;2.53;;;2.10;;
44438;SDS011;30145;48.874;10.186;2022-11-13T05:32:37;4.27;;;2.40;;
44438;SDS011;30145;48.874;10.186;2022-11-13T05:35:04;3.00;;;2.50;;
44438;SDS011;30145;48.874;10.186;2022-11-13T05:37:31;4.00;;;2.60;;
44438;SDS011;30145;48.874;10.186;2022-11-13T05:39:58;5.57;;;3.00;;
44438;SDS011;30145;48.874;10.186;2022-11-13T05:42:25;4.57;;;2.77;;
44438;SDS011;30145;48.874;10.186;2022-11-13T05:44:52;4.23;;;3.10;;
44438;SDS011;30145;48.874;10.186;2022-11-13T05:47:19;4.00;;;2.93;;
44438;SDS011;30145;48.874;10.186;2022-11-13T05:49:46;4.10;;;3.27;;
44438;SDS011;30145;48.874;10.186;2022-11-13T05:52:13;3.77;;;3.27;;
44438;SDS011;30145;48.874;10.186;2022-11-13T05:54:40;4.37;;;3.30;;
44438;SDS011;30145;48.874;10.186;2022-11-13T05:57:07;4.50;;;3.40;;
44438;SDS011;30145;48.874;10.186;2022-11-13T05:59:34;4.53;;;3.40;;
44438;SDS011;30145;48.874;10.186;2022-11-13T06:02:01;4.73;;;3.50;;
44438;SDS011;30145;48.874;10.186;2022-11-13T06:04:28;5.07;;;3.40;;
44438;SDS011;30145;48.874;10.186;2022-11-13T06:06:55;4.50;;;3.67;;
44438;SDS011;30145;48.874;10.186;2022-11-13T06:09:22;3.93;;;3.07;;
44438;SDS011;30145;48.874;10.186;2022-11-13T06:11:49;4.50;;;3.43;;
44438;SDS011;30145;48.874;10.186;2022-11-13T06:14:16;4.37;;;3.17;;
44438;SDS011;30145;48.874;10.186;2022-11-13T06:16:43;5.57;;;4.00;;
44438;SDS011;30145;48.874;10.186;2022-11-13T06:19:10;4.53;;;3.40;;
44438;SDS011;30145;48.874;10.186;2022-11-13T06:21:38;4.83;;;3.47;;
44438;SDS011;30145;48.874;10.186;2022-11-13T06:24:06;4.83;;;3.33;;
44438;SDS011;30145;48.874;10.186;2022-11-13T06:26:34;4.77;;;3.30;;
44438;SDS011;30145;48.874;10.186;2022-11-13T06:29:02;5.17;;;3.43;;
44438;SDS011;30145;48.874;10.186;2022-11-13T06:31:31;5.27;;;2.80;;
44438;SDS011;30145;48.874;10.186;2022-11-13T06:33:59;4.07;;;3.17;;
44438;SDS011;30145;48.874;10.186;2022-11-13T06:36:28;5.27;;;3.10;;
44438;SDS011;30145;48.874;10.186;2022-11-13T06:38:56;3.83;;;2.90;;
44438;SDS011;30145;48.874;10.186;2022-11-13T06:41:24;4.77;;;3.13;;
44438;SDS011;30145;48.874;10.186;2022-11-13T06:43:52;3.27;;;2.53;;
44438;SDS011;30145;48.874;10.186;2022-11-13T06:46:20;4.27;;;2.87;;
44438;SDS011;30145;48.874;10.186;2022-11-13T06:48:49;3.63;;;3.00;;
44438;SDS011;30145;48.874;10.186;2022-11-13T06:51:17;4.43;;;2.77;;
44438;SDS011;30145;48.874;10.186;2022-11-13T06:53:45;3.40;;;2.83;;
44438;SDS011;30145;48.874;10.186;2022-11-13T06:56:12;2.83;;;2.43;;
44438;SDS011;30145;48.874;10.186;2022-11-13T06:58:39;5.03;;;3.07;;
44438;SDS011;30145;48.874;10.186;2022-11-13T07:01:07;4.50;;;3.00;;
44438;SDS011;30145;48.874;10.186;2022-11-13T07:03:39;3.87;;;2.87;;
44438;SDS011;30145;48.874;10.186;2022-11-13T07:06:13;4.93;;;3.03;;
44438;SDS011;30145;48.874;10.186;2022-11-13T07:08:42;3.77;;;2.63;;
44438;SDS011;30145;48.874;10.186;2022-11-13T07:11:12;4.43;;;2.67;;
44438;SDS011;30145;48.874;10.186;2022-11-13T07:13:40;3.93;;;3.53;;
44438;SDS011;30145;48.874;10.186;2022-11-13T07:16:08;4.40;;;3.53;;
44438;SDS011;30145;48.874;10.186;2022-11-13T07:18:41;5.00;;;3.83;;
44438;SDS011;30145;48.874;10.186;2022-11-13T07:21:09;7.33;;;4.97;;
44438;SDS011;30145;48.874;10.186;2022-11-13T07:23:38;6.57;;;4.77;;
44438;SDS011;30145;48.874;10.186;2022-11-13T07:26:11;6.67;;;5.00;;
44438;SDS011;30145;48.874;10.186;2022-11-13T07:28:39;6.73;;;5.30;;
44438;SDS011;30145;48.874;10.186;2022-11-13T07:31:06;7.60;;;5.40;;
44438;SDS011;30145;48.874;10.186;2022-11-13T07:33:34;8.23;;;5.43;;
44438;SDS011;30145;48.874;10.186;2022-11-13T07:36:01;8.73;;;5.70;;
44438;SDS011;30145;48.874;10.186;2022-11-13T07:38:28;8.20;;;6.30;;
44438;SDS011;30145;48.874;10.186;2022-11-13T07:40:58;7.77;;;5.93;;
44438;SDS011;30145;48.874;10.186;2022-11-13T07:43:26;7.17;;;5.77;;
44438;SDS011;30145;48.874;10.186;2022-11-13T07:45:53;8.53;;;6.00;;
44438;SDS011;30145;48.874;10.186;2022-11-13T07:48:21;8.47;;;6.33;;
44438;SDS011;30145;48.874;10.186;2022-11-13T07:50:48;7.33;;;5.93;;
44438;SDS011;30145;48.874;10.186;2022-11-13T07:53:16;7.23;;;5.70;;
44438;SDS011;30145;48.874;10.186;2022-11-13T07:55:43;8.37;;;5.83;;
44438;SDS011;30145;48.874;10.186;2022-11-13T07:58:10;8.47;;;5.50;;
44438;SDS011;30145;48.874;10.186;2022-11-13T08:00:38;6.83;;;5.33;;
44438;SDS011;30145;48.874;10.186;2022-11-13T08:03:10;6.77;;;4.93;;
44438;SDS011;30145;48.874;10.186;2022-11-13T08:05:39;9.10;;;6.00;;
44438;SDS011;30145;48.874;10.186;2022-11-13T08:08:06;8.67;;;5.70;;
44438;SDS011;30145;48.874;10.186;2022-11-13T08:10:34;7.00;;;5.50;;
44438;SDS011;30145;48.874;10.186;2022-11-13T08:13:03;7.50;;;5.20;;
44438;SDS011;30145;48.874;10.186;2022-11-13T08:15:33;5.27;;;4.40;;
44438;SDS011;30145;48.874;10.186;2022-11-13T08:18:01;6.40;;;4.70;;
44438;SDS011;30145;48.874;10.186;2022-11-13T08:20:29;5.80;;;4.17;;
44438;SDS011;30145;48.874;10.186;2022-11-13T08:22:58;6.17;;;4.20;;
44438;SDS011;30145;48.874;10.186;2022-11-13T08:25:26;6.90;;;4.63;;
44438;SDS011;30145;48.874;10.186;2022-11-13T08:27:54;7.17;;;4.77;;
44438;SDS011;30145;48.874;10.186;2022-11-13T08:30:21;5.07;;;4.13;;
44438;SDS011;30145;48.874;10.186;2022-11-13T08:32:49;5.50;;;4.27;;
44438;SDS011;30145;48.874;10.186;2022-11-13T08:35:17;4.97;;;4.10;;
44438;SDS011;30145;48.874;10.186;2022-11-13T08:37:45;5.53;;;4.37;;
44438;SDS011;30145;48.874;10.186;2022-11-13T08:40:12;5.20;;;4.00;;
44438;SDS011;30145;48.874;10.186;2022-11-13T08:42:39;4.97;;;4.30;;
44438;SDS011;30145;48.874;10.186;2022-11-13T08:45:06;5.60;;;4.10;;
44438;SDS011;30145;48.874;10.186;2022-11-13T08:47:34;4.27;;;3.47;;
44438;SDS011;30145;48.874;10.186;2022-11-13T08:50:02;4.83;;;4.20;;
44438;SDS011;30145;48.874;10.186;2022-11-13T08:52:30;6.37;;;3.97;;
44438;SDS011;30145;48.874;10.186;2022-11-13T08:54:57;4.97;;;3.87;;
44438;SDS011;30145;48.874;10.186;2022-11-13T08:57:24;7.17;;;4.40;;
44438;SDS011;30145;48.874;10.186;2022-11-13T08:59:51;6.60;;;4.07;;
44438;SDS011;30145;48.874;10.186;2022-11-13T09:02:18;5.13;;;4.23;;
44438;SDS011;30145;48.874;10.186;2022-11-13T09:04:45;6.17;;;4.60;;
44438;SDS011;30145;48.874;10.186;2022-11-13T09:07:12;4.83;;;4.13;;
44438;SDS011;30145;48.874;10.186;2022-11-13T09:09:39;5.30;;;4.10;;
44438;SDS011;30145;48.874;10.186;2022-11-13T09:12:06;4.40;;;4.00;;
44438;SDS011;30145;48.874;10.186;2022-11-13T09:14:34;5.67;;;3.90;;
44438;SDS011;30145;48.874;10.186;2022-11-13T09:17:01;4.97;;;4.23;;
44438;SDS011;30145;48.874;10.186;2022-11-13T09:19:28;4.03;;;3.60;;
44438;SDS011;30145;48.874;10.186;2022-11-13T09:21:55;4.63;;;3.00;;
44438;SDS011;30145;48.874;10.186;2022-11-13T09:24:22;2.90;;;2.67;;
44438;SDS011;30145;48.874;10.186;2022-11-13T09:26:49;4.27;;;2.90;;
44438;SDS011;30145;48.874;10.186;2022-11-13T09:29:16;3.37;;;2.63;;
44438;SDS011;30145;48.874;10.186;2022-11-13T09:31:45;3.37;;;2.80;;
44438;SDS011;30145;48.874;10.186;2022-11-13T09:34:12;4.13;;;2.87;;
44438;SDS011;30145;48.874;10.186;2022-11-13T09:36:39;3.20;;;2.60;;
44438;SDS011;30145;48.874;10.186;2022-11-13T09:39:06;3.40;;;2.50;;
44438;SDS011;30145;48.874;10.186;2022-11-13T09:41:34;2.77;;;2.17;;
44438;SDS011;30145;48.874;10.186;2022-11-13T09:44:21;3.40;;;2.70;;
44438;SDS011;30145;48.874;10.186;2022-11-13T09:47:19;2.67;;;2.20;;
44438;SDS011;30145;48.874;10.186;2022-11-13T09:49:46;3.90;;;2.57;;
44438;SDS011;30145;48.874;10.186;2022-11-13T09:52:19;2.77;;;2.50;;
44438;SDS011;30145;48.874;10.186;2022-11-13T09:54:50;2.30;;;2.10;;
44438;SDS011;30145;48.874;10.186;2022-11-13T09:59:55;2.13;;;1.93;;
44438;SDS011;30145;48.874;10.186;2022-11-13T10:05:02;3.60;;;2.53;;
44438;SDS011;30145;48.874;10.186;2022-11-13T10:08:04;2.67;;;2.00;;
44438;SDS011;30145;48.874;10.186;2022-11-13T10:13:16;2.10;;;1.90;;
44438;SDS011;30145;48.874;10.186;2022-11-13T10:15:55;4.53;;;2.50;;
44438;SDS011;30145;48.874;10.186;2022-11-13T10:18:44;4.23;;;2.57;;
44438;SDS011;30145;48.874;10.186;2022-11-13T10:24:02;3.57;;;2.63;;
44438;SDS011;30145;48.874;10.186;2022-11-13T10:26:32;2.80;;;2.00;;
44438;SDS011;30145;48.874;10.186;2022-11-13T10:29:07;4.27;;;2.50;;
44438;SDS011;30145;48.874;10.186;2022-11-13T10:34:08;3.33;;;2.50;;
44438;SDS011;30145;48.874;10.186;2022-11-13T10:36:39;2.80;;;2.50;;
44438;SDS011;30145;48.874;10.186;2022-11-13T10:39:12;4.17;;;2.47;;
44438;SDS011;30145;48.874;10.186;2022-11-13T10:41:46;2.60;;;2.30;;
44438;SDS011;30145;48.874;10.186;2022-11-13T10:44:32;5.73;;;2.60;;
44438;SDS011;30145;48.874;10.186;2022-11-13T10:47:16;2.17;;;1.97;;
44438;SDS011;30145;48.874;10.186;2022-11-13T10:49:56;2.13;;;1.90;;
44438;SDS011;30145;48.874;10.186;2022-11-13T10:52:34;3.13;;;2.20;;
44438;SDS011;30145;48.874;10.186;2022-11-13T10:55:14;3.07;;;2.47;;
44438;SDS011;30145;48.874;10.186;2022-11-13T10:57:41;2.83;;;2.20;;
44438;SDS011;30145;48.874;10.186;2022-11-13T11:03:07;2.70;;;2.07;;
44438;SDS011;30145;48.874;10.186;2022-11-13T11:05:38;2.93;;;2.33;;
44438;SDS011;30145;48.874;10.186;2022-11-13T11:08:07;2.17;;;1.97;;
44438;SDS011;30145;48.874;10.186;2022-11-13T11:10:35;2.70;;;2.13;;
44438;SDS011;30145;48.874;10.186;2022-11-13T11:13:22;2.63;;;1.97;;
44438;SDS011;30145;48.874;10.186;2022-11-13T11:15:51;2.17;;;1.83;;
44438;SDS011;30145;48.874;10.186;2022-11-13T11:18:23;2.97;;;2.20;;
44438;SDS011;30145;48.874;10.186;2022-11-13T11:20:58;2.93;;;2.20;;
44438;SDS011;30145;48.874;10.186;2022-11-13T11:28:42;3.47;;;2.40;;
44438;SDS011;30145;48.874;10.186;2022-11-13T11:31:38;4.13;;;2.80;;
44438;SDS011;30145;48.874;10.186;2022-11-13T11:34:28;4.83;;;2.60;;
44438;SDS011;30145;48.874;10.186;2022-11-13T11:47:27;4.13;;;3.10;;
44438;SDS011;30145;48.874;10.186;2022-11-13T11:49:54;5.30;;;3.17;;
44438;SDS011;30145;48.874;10.186;2022-11-13T12:01:03;4.07;;;3.30;;
44438;SDS011;30145;48.874;10.186;2022-11-13T12:12:01;3.57;;;2.60;;
44438;SDS011;30145;48.874;10.186;2022-11-13T12:17:20;5.07;;;2.90;;
44438;SDS011;30145;48.874;10.186;2022-11-13T12:20:10;3.90;;;2.87;;
44438;SDS011;30145;48.874;10.186;2022-11-13T12:25:37;6.77;;;4.10;;
44438;SDS011;30145;48.874;10.186;2022-11-13T12:28:13;4.77;;;3.53;;
44438;SDS011;30145;48.874;10.186;2022-11-13T12:31:23;5.00;;;4.13;;
44438;SDS011;30145;48.874;10.186;2022-11-13T12:34:30;3.73;;;3.23;;
44438;SDS011;30145;48.874;10.186;2022-11-13T12:37:25;3.53;;;2.70;;
44438;SDS011;30145;48.874;10.186;2022-11-13T12:39:57;5.90;;;4.03;;
44438;SDS011;30145;48.874;10.186;2022-11-13T12:45:15;4.20;;;3.10;;
44438;SDS011;30145;48.874;10.186;2022-11-13T12:47:49;4.70;;;3.17;;
44438;SDS011;30145;48.874;10.186;2022-11-13T12:50:28;4.60;;;3.43;;
44438;SDS011;30145;48.874;10.186;2022-11-13T12:52:58;7.20;;;4.13;;
44438;SDS011;30145;48.874;10.186;2022-11-13T12:55:30;5.17;;;4.20;;
44438;SDS011;30145;48.874;10.186;2022-11-13T12:58:19;10.07;;;6.70;;
44438;SDS011;30145;48.874;10.186;2022-11-13T13:00:52;11.83;;;6.77;;
44438;SDS011;30145;48.874;10.186;2022-11-13T13:03:37;8.97;;;5.70;;
44438;SDS011;30145;48.874;10.186;2022-11-13T13:15:57;3.73;;;2.83;;
44438;SDS011;30145;48.874;10.186;2022-11-13T13:18:27;2.67;;;2.43;;
44438;SDS011;30145;48.874;10.186;2022-11-13T13:23:27;3.57;;;2.93;;
44438;SDS011;30145;48.874;10.186;2022-11-13T13:26:42;4.23;;;2.87;;
44438;SDS011;30145;48.874;10.186;2022-11-13T13:31:51;4.13;;;2.80;;
44438;SDS011;30145;48.874;10.186;2022-11-13T13:42:35;3.93;;;3.17;;
44438;SDS011;30145;48.874;10.186;2022-11-13T13:45:37;3.27;;;2.77;;
44438;SDS011;30145;48.874;10.186;2022-11-13T13:48:19;4.07;;;3.10;;
44438;SDS011;30145;48.874;10.186;2022-11-13T13:50:48;3.30;;;3.00;;
44438;SDS011;30145;48.874;10.186;2022-11-13T13:53:17;3.07;;;2.70;;
44438;SDS011;30145;48.874;10.186;2022-11-13T13:55:52;3.00;;;2.70;;
44438;SDS011;30145;48.874;10.186;2022-11-13T13:58:22;2.97;;;2.50;;
44438;SDS011;30145;48.874;10.186;2022-11-13T14:01:00;5.67;;;2.57;;
44438;SDS011;30145;48.874;10.186;2022-11-13T14:03:45;3.20;;;2.30;;
44438;SDS011;30145;48.874;10.186;2022-11-13T14:06:19;3.07;;;2.60;;
44438;SDS011;30145;48.874;10.186;2022-11-13T14:08:48;3.33;;;2.43;;
44438;SDS011;30145;48.874;10.186;2022-11-13T14:13:47;3.40;;;2.57;;
44438;SDS011;30145;48.874;10.186;2022-11-13T14:16:14;3.00;;;2.60;;
44438;SDS011;30145;48.874;10.186;2022-11-13T14:18:41;3.53;;;2.40;;
44438;SDS011;30145;48.874;10.186;2022-11-13T14:21:10;2.80;;;2.40;;
44438;SDS011;30145;48.874;10.186;2022-11-13T14:23:43;2.83;;;2.20;;
44438;SDS011;30145;48.874;10.186;2022-11-13T14:26:12;2.87;;;2.33;;
44438;SDS011;30145;48.874;10.186;2022-11-13T14:28:58;4.33;;;2.40;;
44438;SDS011;30145;48.874;10.186;2022-11-13T14:31:27;2.50;;;2.17;;
44438;SDS011;30145;48.874;10.186;2022-11-13T14:33:56;3.13;;;2.30;;
44438;SDS011;30145;48.874;10.186;2022-11-13T14:36:27;2.50;;;2.30;;
44438;SDS011;30145;48.874;10.186;2022-11-13T14:38:58;2.50;;;2.00;;
44438;SDS011;30145;48.874;10.186;2022-11-13T14:43:59;5.80;;;2.87;;
44438;SDS011;30145;48.874;10.186;2022-11-13T14:46:41;7.20;;;5.10;;
44438;SDS011;30145;48.874;10.186;2022-11-13T14:49:13;3.13;;;2.60;;
44438;SDS011;30145;48.874;10.186;2022-11-13T14:51:52;4.13;;;2.60;;
44438;SDS011;30145;48.874;10.186;2022-11-13T14:54:28;3.43;;;2.90;;
44438;SDS011;30145;48.874;10.186;2022-11-13T14:57:13;6.80;;;3.10;;
44438;SDS011;30145;48.874;10.186;2022-11-13T14:59:40;3.60;;;2.97;;
44438;SDS011;30145;48.874;10.186;2022-11-13T15:02:10;3.10;;;2.57;;
44438;SDS011;30145;48.874;10.186;2022-11-13T15:04:37;4.37;;;2.80;;
44438;SDS011;30145;48.874;10.186;2022-11-13T15:10:10;8.53;;;7.13;;
44438;SDS011;30145;48.874;10.186;2022-11-13T15:12:40;7.13;;;4.87;;
44438;SDS011;30145;48.874;10.186;2022-11-13T15:15:14;4.23;;;3.53;;
44438;SDS011;30145;48.874;10.186;2022-11-13T15:17:43;4.27;;;3.27;;
44438;SDS011;30145;48.874;10.186;2022-11-13T15:20:17;4.37;;;3.37;;
44438;SDS011;30145;48.874;10.186;2022-11-13T15:22:45;3.40;;;2.87;;
44438;SDS011;30145;48.874;10.186;2022-11-13T15:25:13;4.60;;;3.33;;
44438;SDS011;30145;48.874;10.186;2022-11-13T15:27:41;6.07;;;3.37;;
44438;SDS011;30145;48.874;10.186;2022-11-13T15:30:09;4.87;;;3.67;;
44438;SDS011;30145;48.874;10.186;2022-11-13T15:32:36;4.00;;;3.10;;
44438;SDS011;30145;48.874;10.186;2022-11-13T15:35:04;3.67;;;3.20;;
44438;SDS011;30145;48.874;10.186;2022-11-13T15:37:32;4.77;;;2.80;;
44438;SDS011;30145;48.874;10.186;2022-11-13T15:39:59;3.50;;;3.00;;
44438;SDS011;30145;48.874;10.186;2022-11-13T15:42:30;4.23;;;3.20;;
44438;SDS011;30145;48.874;10.186;2022-11-13T15:44:59;5.47;;;4.13;;
44438;SDS011;30145;48.874;10.186;2022-11-13T15:47:33;4.80;;;4.00;;
44438;SDS011;30145;48.874;10.186;2022-11-13T15:50:02;4.57;;;3.80;;
44438;SDS011;30145;48.874;10.186;2022-11-13T15:52:46;5.20;;;3.80;;
44438;SDS011;30145;48.874;10.186;2022-11-13T15:57:55;4.03;;;3.27;;
44438;SDS011;30145;48.874;10.186;2022-11-13T16:00:24;5.43;;;4.40;;
44438;SDS011;30145;48.874;10.186;2022-11-13T16:02:53;6.70;;;4.23;;
44438;SDS011;30145;48.874;10.186;2022-11-13T16:05:26;9.07;;;4.90;;
44438;SDS011;30145;48.874;10.186;2022-11-13T16:07:54;6.33;;;3.53;;
44438;SDS011;30145;48.874;10.186;2022-11-13T16:10:22;4.67;;;4.00;;
44438;SDS011;30145;48.874;10.186;2022-11-13T16:12:50;5.53;;;4.27;;
44438;SDS011;30145;48.874;10.186;2022-11-13T16:15:18;7.90;;;4.70;;
44438;SDS011;30145;48.874;10.186;2022-11-13T16:17:46;7.70;;;5.23;;
44438;SDS011;30145;48.874;10.186;2022-11-13T16:20:18;7.20;;;4.70;;
44438;SDS011;30145;48.874;10.186;2022-11-13T16:22:45;8.60;;;6.63;;
44438;SDS011;30145;48.874;10.186;2022-11-13T16:25:13;8.70;;;6.80;;
44438;SDS011;30145;48.874;10.186;2022-11-13T16:27:41;19.47;;;13.97;;
44438;SDS011;30145;48.874;10.186;2022-11-13T16:30:12;13.13;;;11.03;;